sensor_id;sensor_type;location;lat;lon;timestamp;pressure;altitude;pressure_sealevel;temperature;humidity
38786;BME280;24535;45.508;12.252;2023-11-19T00:02:15;102182.63;;;10.09;59.46
38786;BME280;24535;45.508;12.252;2023-11-19T00:04:40;102183.38;;;10.13;59.42
38786;BME280;24535;45.508;12.252;2023-11-19T00:07:06;102185.00;;;10.15;59.50
38786;BME280;24535;45.508;12.252;2023-11-19T00:09:33;102196.34;;;10.18;59.73
38786;BME280;24535;45.508;12.252;2023-11-19T00:12:00;102195.34;;;10.20;59.51
38786;BME280;24535;45.508;12.252;2023-11-19T00:14:26;102192.66;;;10.22;59.34
38786;BME280;24535;45.508;12.252;2023-11-19T00:16:51;102186.47;;;10.23;59.22
38786;BME280;24535;45.508;12.252;2023-11-19T00:19:19;102193.53;;;10.21;59.61
38786;BME280;24535;45.508;12.252;2023-11-19T00:21:44;102202.25;;;10.23;59.74
38786;BME280;24535;45.508;12.252;2023-11-19T00:24:11;102189.00;;;10.24;59.17
38786;BME280;24535;45.508;12.252;2023-11-19T00:26:38;102175.84;;;10.26;58.99
38786;BME280;24535;45.508;12.252;2023-11-19T00:29:03;102169.72;;;10.25;58.92
38786;BME280;24535;45.508;12.252;2023-11-19T00:31:29;102163.53;;;10.26;59.29
38786;BME280;24535;45.508;12.252;2023-11-19T00:33:54;102152.91;;;10.28;59.25
38786;BME280;24535;45.508;12.252;2023-11-19T00:36:20;102151.00;;;10.31;59.25
38786;BME280;24535;45.508;12.252;2023-11-19T00:38:46;102144.03;;;10.30;59.01
38786;BME280;24535;45.508;12.252;2023-11-19T00:41:11;102168.59;;;10.31;59.03
38786;BME280;24535;45.508;12.252;2023-11-19T00:43:36;102172.16;;;10.30;59.03
38786;BME280;24535;45.508;12.252;2023-11-19T00:46:02;102180.81;;;10.32;59.06
38786;BME280;24535;45.508;12.252;2023-11-19T00:48:30;102185.97;;;10.35;59.64
38786;BME280;24535;45.508;12.252;2023-11-19T00:50:57;102186.81;;;10.35;59.37
38786;BME280;24535;45.508;12.252;2023-11-19T00:53:22;102169.31;;;10.34;58.61
38786;BME280;24535;45.508;12.252;2023-11-19T00:55:47;102167.53;;;10.35;59.48
38786;BME280;24535;45.508;12.252;2023-11-19T00:58:13;102166.59;;;10.36;58.85
38786;BME280;24535;45.508;12.252;2023-11-19T01:00:38;102160.34;;;10.38;59.33
38786;BME280;24535;45.508;12.252;2023-11-19T01:03:04;102168.13;;;10.42;59.19
38786;BME280;24535;45.508;12.252;2023-11-19T01:05:29;102170.69;;;10.43;58.88
38786;BME280;24535;45.508;12.252;2023-11-19T01:07:54;102161.66;;;10.49;58.73
38786;BME280;24535;45.508;12.252;2023-11-19T01:10:20;102160.75;;;10.50;59.43
38786;BME280;24535;45.508;12.252;2023-11-19T01:12:46;102171.13;;;10.53;59.58
38786;BME280;24535;45.508;12.252;2023-11-19T01:15:11;102159.63;;;10.55;59.17
38786;BME280;24535;45.508;12.252;2023-11-19T01:17:38;102157.72;;;10.59;59.02
38786;BME280;24535;45.508;12.252;2023-11-19T01:20:04;102153.22;;;10.61;58.55
38786;BME280;24535;45.508;12.252;2023-11-19T01:22:32;102154.00;;;10.63;58.66
38786;BME280;24535;45.508;12.252;2023-11-19T01:24:58;102154.88;;;10.63;59.17
38786;BME280;24535;45.508;12.252;2023-11-19T01:27:26;102146.09;;;10.63;59.00
38786;BME280;24535;45.508;12.252;2023-11-19T01:29:52;102136.41;;;10.63;59.01
38786;BME280;24535;45.508;12.252;2023-11-19T01:32:17;102140.75;;;10.64;59.04
38786;BME280;24535;45.508;12.252;2023-11-19T01:34:42;102131.06;;;10.65;59.10
38786;BME280;24535;45.508;12.252;2023-11-19T01:37:08;102131.03;;;10.67;58.96
38786;BME280;24535;45.508;12.252;2023-11-19T01:39:35;102124.69;;;10.71;59.02
38786;BME280;24535;45.508;12.252;2023-11-19T01:42:01;102118.41;;;10.73;59.26
38786;BME280;24535;45.508;12.252;2023-11-19T01:44:26;102121.00;;;10.75;58.80
38786;BME280;24535;45.508;12.252;2023-11-19T01:46:52;102123.63;;;10.75;59.13
38786;BME280;24535;45.508;12.252;2023-11-19T01:49:18;102111.22;;;10.77;59.19
38786;BME280;24535;45.508;12.252;2023-11-19T01:51:45;102108.53;;;10.78;59.46
38786;BME280;24535;45.508;12.252;2023-11-19T01:54:12;102100.66;;;10.77;59.51
38786;BME280;24535;45.508;12.252;2023-11-19T01:56:38;102100.63;;;10.78;59.01
38786;BME280;24535;45.508;12.252;2023-11-19T01:59:07;102084.72;;;10.80;59.08
38786;BME280;24535;45.508;12.252;2023-11-19T02:01:33;102084.63;;;10.81;59.09
38786;BME280;24535;45.508;12.252;2023-11-19T02:04:03;102087.28;;;10.81;59.08
38786;BME280;24535;45.508;12.252;2023-11-19T02:06:30;102102.09;;;10.84;59.39
38786;BME280;24535;45.508;12.252;2023-11-19T02:08:57;102098.63;;;10.83;59.47
38786;BME280;24535;45.508;12.252;2023-11-19T02:11:23;102093.13;;;10.88;59.07
38786;BME280;24535;45.508;12.252;2023-11-19T02:13:49;102086.03;;;10.90;59.55
38786;BME280;24535;45.508;12.252;2023-11-19T02:16:14;102063.19;;;10.89;58.77
38786;BME280;24535;45.508;12.252;2023-11-19T02:18:40;102063.19;;;10.89;58.93
38786;BME280;24535;45.508;12.252;2023-11-19T02:21:05;102075.63;;;10.87;59.08
38786;BME280;24535;45.508;12.252;2023-11-19T02:23:31;102063.50;;;10.83;58.83
38786;BME280;24535;45.508;12.252;2023-11-19T02:28:23;102069.03;;;10.77;58.88
38786;BME280;24535;45.508;12.252;2023-11-19T02:30:48;102067.34;;;10.76;58.92
38786;BME280;24535;45.508;12.252;2023-11-19T02:33:14;102069.25;;;10.72;59.22
38786;BME280;24535;45.508;12.252;2023-11-19T02:35:40;102068.50;;;10.70;59.45
38786;BME280;24535;45.508;12.252;2023-11-19T02:38:06;102054.50;;;10.68;59.29
38786;BME280;24535;45.508;12.252;2023-11-19T02:40:32;102048.53;;;10.64;59.16
38786;BME280;24535;45.508;12.252;2023-11-19T02:42:58;102052.94;;;10.64;58.89
38786;BME280;24535;45.508;12.252;2023-11-19T02:45:25;102048.69;;;10.61;59.29
38786;BME280;24535;45.508;12.252;2023-11-19T02:47:51;102065.47;;;10.59;59.30
38786;BME280;24535;45.508;12.252;2023-11-19T02:50:17;102055.94;;;10.56;59.82
38786;BME280;24535;45.508;12.252;2023-11-19T02:52:51;102053.28;;;10.56;59.51
38786;BME280;24535;45.508;12.252;2023-11-19T02:55:16;102047.25;;;10.54;59.42
38786;BME280;24535;45.508;12.252;2023-11-19T02:57:43;102047.38;;;10.51;59.21
38786;BME280;24535;45.508;12.252;2023-11-19T03:00:17;102041.25;;;10.51;59.47
38786;BME280;24535;45.508;12.252;2023-11-19T03:02:43;102045.59;;;10.52;59.75
38786;BME280;24535;45.508;12.252;2023-11-19T03:05:13;102042.03;;;10.53;59.69
38786;BME280;24535;45.508;12.252;2023-11-19T03:07:41;102033.28;;;10.52;59.15
38786;BME280;24535;45.508;12.252;2023-11-19T03:10:08;102029.06;;;10.48;59.25
38786;BME280;24535;45.508;12.252;2023-11-19T03:12:34;102016.97;;;10.44;59.24
38786;BME280;24535;45.508;12.252;2023-11-19T03:15:00;102018.75;;;10.44;59.15
38786;BME280;24535;45.508;12.252;2023-11-19T03:17:26;102019.81;;;10.39;58.98
38786;BME280;24535;45.508;12.252;2023-11-19T03:19:51;102023.44;;;10.37;59.23
38786;BME280;24535;45.508;12.252;2023-11-19T03:22:17;102012.13;;;10.35;59.35
38786;BME280;24535;45.508;12.252;2023-11-19T03:24:42;102010.47;;;10.32;59.48
38786;BME280;24535;45.508;12.252;2023-11-19T03:27:07;102014.97;;;10.30;59.00
38786;BME280;24535;45.508;12.252;2023-11-19T03:29:33;102019.22;;;10.33;59.54
38786;BME280;24535;45.508;12.252;2023-11-19T03:31:58;102019.09;;;10.36;59.88
38786;BME280;24535;45.508;12.252;2023-11-19T03:34:24;102017.41;;;10.35;59.35
38786;BME280;24535;45.508;12.252;2023-11-19T03:36:49;102007.72;;;10.35;59.40
38786;BME280;24535;45.508;12.252;2023-11-19T03:39:15;102013.09;;;10.32;59.03
38786;BME280;24535;45.508;12.252;2023-11-19T03:41:40;102007.13;;;10.29;59.33
38786;BME280;24535;45.508;12.252;2023-11-19T03:44:05;102012.34;;;10.30;59.74
38786;BME280;24535;45.508;12.252;2023-11-19T03:46:31;102017.53;;;10.32;59.39
38786;BME280;24535;45.508;12.252;2023-11-19T03:48:56;102006.94;;;10.33;59.61
38786;BME280;24535;45.508;12.252;2023-11-19T03:51:22;101987.69;;;10.31;59.21
38786;BME280;24535;45.508;12.252;2023-11-19T03:53:47;101978.16;;;10.29;59.05
38786;BME280;24535;45.508;12.252;2023-11-19T03:56:12;101974.75;;;10.27;59.13
38786;BME280;24535;45.508;12.252;2023-11-19T03:58:38;101988.09;;;10.22;58.66
38786;BME280;24535;45.508;12.252;2023-11-19T04:01:13;101987.28;;;10.20;59.33
38786;BME280;24535;45.508;12.252;2023-11-19T04:03:39;101987.50;;;10.15;58.71
38786;BME280;24535;45.508;12.252;2023-11-19T04:06:04;101995.41;;;10.15;59.45
38786;BME280;24535;45.508;12.252;2023-11-19T04:08:30;101998.97;;;10.14;59.11
38786;BME280;24535;45.508;12.252;2023-11-19T04:10:56;101984.88;;;10.15;59.47
38786;BME280;24535;45.508;12.252;2023-11-19T04:13:21;101983.31;;;10.11;59.51
38786;BME280;24535;45.508;12.252;2023-11-19T04:15:49;101998.25;;;10.11;59.30
38786;BME280;24535;45.508;12.252;2023-11-19T04:18:15;101998.47;;;10.06;59.19
38786;BME280;24535;45.508;12.252;2023-11-19T04:20:41;101997.66;;;10.04;58.95
38786;BME280;24535;45.508;12.252;2023-11-19T04:23:10;101989.13;;;9.99;59.07
38786;BME280;24535;45.508;12.252;2023-11-19T04:25:36;101994.50;;;9.96;58.98
38786;BME280;24535;45.508;12.252;2023-11-19T04:28:02;101993.81;;;9.93;59.45
38786;BME280;24535;45.508;12.252;2023-11-19T04:30:28;101989.44;;;9.91;59.27
38786;BME280;24535;45.508;12.252;2023-11-19T04:32:53;101990.38;;;9.90;58.97
38786;BME280;24535;45.508;12.252;2023-11-19T04:35:19;101983.47;;;9.88;59.47
38786;BME280;24535;45.508;12.252;2023-11-19T04:37:44;101979.22;;;9.85;58.94
38786;BME280;24535;45.508;12.252;2023-11-19T04:40:10;101968.59;;;9.87;59.36
38786;BME280;24535;45.508;12.252;2023-11-19T04:42:37;101967.81;;;9.85;59.29
38786;BME280;24535;45.508;12.252;2023-11-19T04:45:06;101981.00;;;9.85;59.10
38786;BME280;24535;45.508;12.252;2023-11-19T04:47:32;101990.72;;;9.83;59.41
38786;BME280;24535;45.508;12.252;2023-11-19T04:49:58;101982.91;;;9.81;59.22
38786;BME280;24535;45.508;12.252;2023-11-19T04:52:24;101974.06;;;9.82;59.50
38786;BME280;24535;45.508;12.252;2023-11-19T04:54:49;101958.41;;;9.79;60.17
38786;BME280;24535;45.508;12.252;2023-11-19T04:57:14;101957.50;;;9.80;59.07
38786;BME280;24535;45.508;12.252;2023-11-19T04:59:40;101950.50;;;9.79;59.47
38786;BME280;24535;45.508;12.252;2023-11-19T05:02:06;101951.53;;;9.77;59.59
38786;BME280;24535;45.508;12.252;2023-11-19T05:04:33;101954.16;;;9.77;59.58
38786;BME280;24535;45.508;12.252;2023-11-19T05:06:58;101953.28;;;9.76;59.66
38786;BME280;24535;45.508;12.252;2023-11-19T05:09:24;101964.69;;;9.77;59.74
38786;BME280;24535;45.508;12.252;2023-11-19T05:11:49;101971.66;;;9.78;59.55
38786;BME280;24535;45.508;12.252;2023-11-19T05:14:15;101963.66;;;9.79;59.68
38786;BME280;24535;45.508;12.252;2023-11-19T05:16:41;101971.66;;;9.78;59.17
38786;BME280;24535;45.508;12.252;2023-11-19T05:19:08;101969.94;;;9.77;59.25
38786;BME280;24535;45.508;12.252;2023-11-19T05:21:34;101969.88;;;9.78;59.52
38786;BME280;24535;45.508;12.252;2023-11-19T05:23:59;101949.75;;;9.77;59.42
38786;BME280;24535;45.508;12.252;2023-11-19T05:26:25;101948.94;;;9.75;59.20
38786;BME280;24535;45.508;12.252;2023-11-19T05:28:51;101942.94;;;9.72;58.86
38786;BME280;24535;45.508;12.252;2023-11-19T05:31:17;101938.75;;;9.68;59.46
38786;BME280;24535;45.508;12.252;2023-11-19T05:33:43;101940.59;;;9.65;59.43
38786;BME280;24535;45.508;12.252;2023-11-19T05:36:10;101943.44;;;9.61;59.15
38786;BME280;24535;45.508;12.252;2023-11-19T05:38:36;101956.72;;;9.58;59.38
38786;BME280;24535;45.508;12.252;2023-11-19T05:41:02;101947.03;;;9.58;59.40
38786;BME280;24535;45.508;12.252;2023-11-19T05:43:28;101948.03;;;9.56;59.40
38786;BME280;24535;45.508;12.252;2023-11-19T05:45:53;101957.69;;;9.55;59.58
38786;BME280;24535;45.508;12.252;2023-11-19T05:48:19;101962.06;;;9.56;59.59
38786;BME280;24535;45.508;12.252;2023-11-19T05:50:44;101955.91;;;9.56;59.58
38786;BME280;24535;45.508;12.252;2023-11-19T05:53:10;101948.94;;;9.55;59.83
38786;BME280;24535;45.508;12.252;2023-11-19T05:55:36;101957.69;;;9.55;59.61
38786;BME280;24535;45.508;12.252;2023-11-19T05:58:10;101944.53;;;9.55;59.82
38786;BME280;24535;45.508;12.252;2023-11-19T06:00:38;101934.19;;;9.52;59.00
38786;BME280;24535;45.508;12.252;2023-11-19T06:03:04;101926.31;;;9.51;59.04
38786;BME280;24535;45.508;12.252;2023-11-19T06:05:29;101927.34;;;9.48;59.42
38786;BME280;24535;45.508;12.252;2023-11-19T06:07:55;101930.09;;;9.45;59.50
38786;BME280;24535;45.508;12.252;2023-11-19T06:10:20;101933.78;;;9.41;59.17
38786;BME280;24535;45.508;12.252;2023-11-19T06:12:46;101924.22;;;9.38;59.52
38786;BME280;24535;45.508;12.252;2023-11-19T06:15:12;101926.97;;;9.35;59.73
38786;BME280;24535;45.508;12.252;2023-11-19T06:17:38;101923.56;;;9.33;59.53
38786;BME280;24535;45.508;12.252;2023-11-19T06:20:04;101931.47;;;9.33;59.64
38786;BME280;24535;45.508;12.252;2023-11-19T06:22:30;101937.56;;;9.34;59.43
38786;BME280;24535;45.508;12.252;2023-11-19T06:24:56;101940.22;;;9.34;60.15
38786;BME280;24535;45.508;12.252;2023-11-19T06:27:22;101934.81;;;9.37;60.17
38786;BME280;24535;45.508;12.252;2023-11-19T06:29:47;101929.56;;;9.37;59.86
38786;BME280;24535;45.508;12.252;2023-11-19T06:32:13;101926.22;;;9.33;60.13
38786;BME280;24535;45.508;12.252;2023-11-19T06:34:38;101925.34;;;9.33;59.84
38786;BME280;24535;45.508;12.252;2023-11-19T06:37:04;101931.53;;;9.32;59.63
38786;BME280;24535;45.508;12.252;2023-11-19T06:39:29;101935.22;;;9.28;59.82
38786;BME280;24535;45.508;12.252;2023-11-19T06:41:55;101947.38;;;9.30;60.36
38786;BME280;24535;45.508;12.252;2023-11-19T06:44:20;101946.44;;;9.31;60.03
38786;BME280;24535;45.508;12.252;2023-11-19T06:46:46;101941.13;;;9.33;60.11
38786;BME280;24535;45.508;12.252;2023-11-19T06:49:13;101944.69;;;9.32;59.71
38786;BME280;24535;45.508;12.252;2023-11-19T06:51:42;101956.97;;;9.31;59.90
38786;BME280;24535;45.508;12.252;2023-11-19T06:54:09;101958.72;;;9.31;59.55
38786;BME280;24535;45.508;12.252;2023-11-19T06:56:34;101964.91;;;9.30;59.97
38786;BME280;24535;45.508;12.252;2023-11-19T06:58:59;101965.66;;;9.33;60.27
38786;BME280;24535;45.508;12.252;2023-11-19T07:01:25;101972.59;;;9.34;60.15
38786;BME280;24535;45.508;12.252;2023-11-19T07:03:50;101980.47;;;9.36;60.31
38786;BME280;24535;45.508;12.252;2023-11-19T07:06:16;101966.38;;;9.37;59.95
38786;BME280;24535;45.508;12.252;2023-11-19T07:08:42;101966.38;;;9.37;60.04
38786;BME280;24535;45.508;12.252;2023-11-19T07:11:11;101963.88;;;9.34;59.89
38786;BME280;24535;45.508;12.252;2023-11-19T07:13:37;101964.81;;;9.33;59.67
38786;BME280;24535;45.508;12.252;2023-11-19T07:16:03;101962.09;;;9.34;59.32
38786;BME280;24535;45.508;12.252;2023-11-19T07:18:29;101966.50;;;9.34;60.37
38786;BME280;24535;45.508;12.252;2023-11-19T07:20:54;101976.94;;;9.35;60.17
38786;BME280;24535;45.508;12.252;2023-11-19T07:23:20;101981.31;;;9.36;59.88
38786;BME280;24535;45.508;12.252;2023-11-19T07:25:47;101991.69;;;9.39;60.08
38786;BME280;24535;45.508;12.252;2023-11-19T07:28:15;101996.94;;;9.39;60.25
38786;BME280;24535;45.508;12.252;2023-11-19T07:30:41;102003.78;;;9.44;60.23
38786;BME280;24535;45.508;12.252;2023-11-19T07:33:07;101995.97;;;9.42;60.36
38786;BME280;24535;45.508;12.252;2023-11-19T07:35:33;102002.81;;;9.46;59.93
38786;BME280;24535;45.508;12.252;2023-11-19T07:37:59;102002.69;;;9.49;60.40
38786;BME280;24535;45.508;12.252;2023-11-19T07:40:24;102004.25;;;9.53;60.56
38786;BME280;24535;45.508;12.252;2023-11-19T07:42:50;102013.75;;;9.57;60.27
38786;BME280;24535;45.508;12.252;2023-11-19T07:45:16;102027.53;;;9.62;60.58
38786;BME280;24535;45.508;12.252;2023-11-19T07:47:42;102019.47;;;9.67;59.91
38786;BME280;24535;45.508;12.252;2023-11-19T07:50:10;102022.91;;;9.69;60.25
38786;BME280;24535;45.508;12.252;2023-11-19T07:52:36;102016.56;;;9.73;60.43
38786;BME280;24535;45.508;12.252;2023-11-19T07:55:02;102016.38;;;9.78;60.18
38786;BME280;24535;45.508;12.252;2023-11-19T07:57:27;102012.81;;;9.79;60.45
38786;BME280;24535;45.508;12.252;2023-11-19T07:59:56;102004.66;;;9.85;60.23
38786;BME280;24535;45.508;12.252;2023-11-19T08:02:22;101998.28;;;9.90;60.52
38786;BME280;24535;45.508;12.252;2023-11-19T08:04:49;101998.88;;;9.97;60.60
38786;BME280;24535;45.508;12.252;2023-11-19T08:07:17;101997.72;;;10.03;59.72
38786;BME280;24535;45.508;12.252;2023-11-19T08:09:43;101997.47;;;10.09;60.02
38786;BME280;24535;45.508;12.252;2023-11-19T08:12:09;101998.97;;;10.14;60.05
38786;BME280;24535;45.508;12.252;2023-11-19T08:14:35;101993.50;;;10.19;60.38
38786;BME280;24535;45.508;12.252;2023-11-19T08:17:02;101988.00;;;10.25;60.54
38786;BME280;24535;45.508;12.252;2023-11-19T08:19:28;101977.31;;;10.28;60.18
38786;BME280;24535;45.508;12.252;2023-11-19T08:21:53;101981.38;;;10.35;60.55
38786;BME280;24535;45.508;12.252;2023-11-19T08:24:18;101981.97;;;10.42;60.23
38786;BME280;24535;45.508;12.252;2023-11-19T08:26:44;102002.72;;;10.48;60.29
38786;BME280;24535;45.508;12.252;2023-11-19T08:29:09;102001.53;;;10.55;60.07
38786;BME280;24535;45.508;12.252;2023-11-19T08:31:35;102004.66;;;10.63;60.29
38786;BME280;24535;45.508;12.252;2023-11-19T08:34:01;102017.34;;;10.74;60.45
38786;BME280;24535;45.508;12.252;2023-11-19T08:36:26;102013.34;;;10.84;60.42
38786;BME280;24535;45.508;12.252;2023-11-19T08:38:53;102020.75;;;10.95;60.03
38786;BME280;24535;45.508;12.252;2023-11-19T08:41:18;102016.81;;;11.04;59.68
38786;BME280;24535;45.508;12.252;2023-11-19T08:43:44;102012.81;;;11.14;59.55
38786;BME280;24535;45.508;12.252;2023-11-19T08:46:13;101996.53;;;11.23;60.09
38786;BME280;24535;45.508;12.252;2023-11-19T08:48:39;101986.31;;;11.34;60.01
38786;BME280;24535;45.508;12.252;2023-11-19T08:51:05;101985.44;;;11.51;59.69
38786;BME280;24535;45.508;12.252;2023-11-19T08:53:31;102006.47;;;11.70;60.37
38786;BME280;24535;45.508;12.252;2023-11-19T08:55:56;101992.25;;;11.90;59.36
38786;BME280;24535;45.508;12.252;2023-11-19T08:58:21;101983.69;;;12.02;58.58
38786;BME280;24535;45.508;12.252;2023-11-19T09:00:47;101990.13;;;12.14;58.58
38786;BME280;24535;45.508;12.252;2023-11-19T09:03:12;101990.50;;;12.24;57.42
38786;BME280;24535;45.508;12.252;2023-11-19T09:05:38;102000.72;;;12.30;57.76
38786;BME280;24535;45.508;12.252;2023-11-19T09:08:04;102004.75;;;12.37;57.55
38786;BME280;24535;45.508;12.252;2023-11-19T09:10:29;101999.13;;;12.43;57.33
38786;BME280;24535;45.508;12.252;2023-11-19T09:12:55;101994.53;;;12.47;56.35
38786;BME280;24535;45.508;12.252;2023-11-19T09:15:20;101991.47;;;12.54;56.91
38786;BME280;24535;45.508;12.252;2023-11-19T09:17:45;102000.50;;;12.66;57.23
38786;BME280;24535;45.508;12.252;2023-11-19T09:20:11;102001.63;;;12.78;56.66
38786;BME280;24535;45.508;12.252;2023-11-19T09:22:40;102004.34;;;12.92;55.96
38786;BME280;24535;45.508;12.252;2023-11-19T09:25:05;102004.59;;;13.03;55.95
38786;BME280;24535;45.508;12.252;2023-11-19T09:27:31;102003.19;;;13.12;56.14
38786;BME280;24535;45.508;12.252;2023-11-19T09:29:56;102000.91;;;13.22;55.99
38786;BME280;24535;45.508;12.252;2023-11-19T09:32:24;101999.66;;;13.29;55.79
38786;BME280;24535;45.508;12.252;2023-11-19T09:34:49;101986.03;;;13.35;55.98
38786;BME280;24535;45.508;12.252;2023-11-19T09:37:15;101987.56;;;13.39;54.93
38786;BME280;24535;45.508;12.252;2023-11-19T09:39:40;101975.75;;;13.45;54.94
38786;BME280;24535;45.508;12.252;2023-11-19T09:42:09;101969.25;;;13.50;55.54
38786;BME280;24535;45.508;12.252;2023-11-19T09:44:37;101968.97;;;13.55;54.39
38786;BME280;24535;45.508;12.252;2023-11-19T09:47:04;101972.31;;;13.58;54.96
38786;BME280;24535;45.508;12.252;2023-11-19T09:49:30;101970.13;;;13.65;55.12
38786;BME280;24535;45.508;12.252;2023-11-19T09:51:56;101960.03;;;13.72;55.24
38786;BME280;24535;45.508;12.252;2023-11-19T09:54:21;101961.19;;;13.82;54.19
38786;BME280;24535;45.508;12.252;2023-11-19T09:56:47;101937.72;;;13.90;54.59
38786;BME280;24535;45.508;12.252;2023-11-19T09:59:14;101940.53;;;14.01;54.56
38786;BME280;24535;45.508;12.252;2023-11-19T10:01:39;101945.94;;;14.14;55.07
38786;BME280;24535;45.508;12.252;2023-11-19T10:04:06;101945.06;;;14.28;54.84
38786;BME280;24535;45.508;12.252;2023-11-19T10:06:32;101927.44;;;14.41;55.02
38786;BME280;24535;45.508;12.252;2023-11-19T10:08:57;101928.19;;;14.57;54.32
38786;BME280;24535;45.508;12.252;2023-11-19T10:11:24;101918.50;;;14.71;54.77
38786;BME280;24535;45.508;12.252;2023-11-19T10:13:51;101918.53;;;14.83;54.61
38786;BME280;24535;45.508;12.252;2023-11-19T10:16:18;101914.22;;;14.95;54.92
38786;BME280;24535;45.508;12.252;2023-11-19T10:18:48;101917.00;;;15.06;53.80
38786;BME280;24535;45.508;12.252;2023-11-19T10:21:17;101910.03;;;15.18;54.23
38786;BME280;24535;45.508;12.252;2023-11-19T10:23:50;101898.69;;;15.29;53.55
38786;BME280;24535;45.508;12.252;2023-11-19T10:26:17;101905.28;;;15.36;53.45
38786;BME280;24535;45.508;12.252;2023-11-19T10:28:42;101889.88;;;15.41;52.73
38786;BME280;24535;45.508;12.252;2023-11-19T10:31:11;101883.28;;;15.47;52.04
38786;BME280;24535;45.508;12.252;2023-11-19T10:33:38;101869.78;;;15.50;51.38
38786;BME280;24535;45.508;12.252;2023-11-19T10:36:03;101868.63;;;15.54;51.75
38786;BME280;24535;45.508;12.252;2023-11-19T10:38:29;101867.47;;;15.58;51.61
38786;BME280;24535;45.508;12.252;2023-11-19T10:40:56;101863.84;;;15.59;51.40
38786;BME280;24535;45.508;12.252;2023-11-19T10:43:22;101869.91;;;15.61;51.62
38786;BME280;24535;45.508;12.252;2023-11-19T10:45:48;101880.25;;;15.66;51.68
38786;BME280;24535;45.508;12.252;2023-11-19T10:48:14;101881.72;;;15.70;51.97
38786;BME280;24535;45.508;12.252;2023-11-19T10:50:41;101880.66;;;15.72;51.62
38786;BME280;24535;45.508;12.252;2023-11-19T10:53:09;101873.44;;;15.74;51.49
38786;BME280;24535;45.508;12.252;2023-11-19T10:55:36;101852.81;;;15.78;51.36
38786;BME280;24535;45.508;12.252;2023-11-19T10:58:07;101851.84;;;15.79;51.45
38786;BME280;24535;45.508;12.252;2023-11-19T11:00:44;101850.78;;;15.81;50.23
38786;BME280;24535;45.508;12.252;2023-11-19T11:03:18;101844.50;;;15.82;50.66
38786;BME280;24535;45.508;12.252;2023-11-19T11:05:47;101851.41;;;15.85;51.06
38786;BME280;24535;45.508;12.252;2023-11-19T11:08:12;101843.22;;;15.88;50.93
38786;BME280;24535;45.508;12.252;2023-11-19T11:10:43;101843.97;;;15.90;50.89
38786;BME280;24535;45.508;12.252;2023-11-19T11:13:10;101841.09;;;15.93;50.89
38786;BME280;24535;45.508;12.252;2023-11-19T11:15:37;101848.94;;;15.95;51.03
38786;BME280;24535;45.508;12.252;2023-11-19T11:18:03;101877.22;;;15.96;51.21
38786;BME280;24535;45.508;12.252;2023-11-19T11:20:32;101880.75;;;15.96;50.55
38786;BME280;24535;45.508;12.252;2023-11-19T11:39:28;101831.94;;;15.97;50.47
38786;BME280;24535;45.508;12.252;2023-11-19T11:45:04;101816.00;;;15.97;48.65
38786;BME280;24535;45.508;12.252;2023-11-19T11:50:12;101805.22;;;15.99;48.70
38786;BME280;24535;45.508;12.252;2023-11-19T11:55:35;101804.06;;;16.03;48.84
38786;BME280;24535;45.508;12.252;2023-11-19T11:58:02;101787.25;;;16.02;49.81
38786;BME280;24535;45.508;12.252;2023-11-19T12:00:39;101788.09;;;16.03;49.47
38786;BME280;24535;45.508;12.252;2023-11-19T12:03:06;101796.06;;;16.03;49.87
38786;BME280;24535;45.508;12.252;2023-11-19T12:05:33;101819.91;;;16.04;49.92
38786;BME280;24535;45.508;12.252;2023-11-19T12:08:02;101824.25;;;16.05;48.89
38786;BME280;24535;45.508;12.252;2023-11-19T12:10:30;101825.22;;;16.04;49.81
38786;BME280;24535;45.508;12.252;2023-11-19T12:12:59;101823.50;;;16.03;50.25
38786;BME280;24535;45.508;12.252;2023-11-19T12:15:25;101818.94;;;16.05;50.06
38786;BME280;24535;45.508;12.252;2023-11-19T12:17:53;101827.88;;;16.04;49.47
38786;BME280;24535;45.508;12.252;2023-11-19T12:20:21;101824.25;;;16.05;49.90
38786;BME280;24535;45.508;12.252;2023-11-19T12:22:47;101818.94;;;16.05;49.23
38786;BME280;24535;45.508;12.252;2023-11-19T12:25:15;101805.66;;;16.05;49.46
38786;BME280;24535;45.508;12.252;2023-11-19T12:28:00;101807.47;;;16.05;48.87
38786;BME280;24535;45.508;12.252;2023-11-19T12:30:29;101803.97;;;16.04;49.89
38786;BME280;24535;45.508;12.252;2023-11-19T12:32:55;101798.53;;;16.06;49.78
38786;BME280;24535;45.508;12.252;2023-11-19T12:35:21;101801.19;;;16.06;49.64
38786;BME280;24535;45.508;12.252;2023-11-19T12:37:48;101784.38;;;16.05;49.83
38786;BME280;24535;45.508;12.252;2023-11-19T12:40:18;101787.88;;;16.06;49.43
38786;BME280;24535;45.508;12.252;2023-11-19T12:42:53;101796.00;;;16.04;49.18
38786;BME280;24535;45.508;12.252;2023-11-19T12:45:19;101799.50;;;16.05;49.75
38786;BME280;24535;45.508;12.252;2023-11-19T12:47:46;101802.03;;;16.06;49.81
38786;BME280;24535;45.508;12.252;2023-11-19T12:50:15;101788.00;;;16.04;49.96
38786;BME280;24535;45.508;12.252;2023-11-19T12:52:55;101779.28;;;16.02;48.95
38786;BME280;24535;45.508;12.252;2023-11-19T12:55:29;101774.94;;;16.01;49.15
38786;BME280;24535;45.508;12.252;2023-11-19T12:57:55;101771.53;;;15.99;49.36
38786;BME280;24535;45.508;12.252;2023-11-19T13:00:25;101771.53;;;15.99;48.95
38786;BME280;24535;45.508;12.252;2023-11-19T13:02:52;101761.88;;;15.98;48.55
38786;BME280;24535;45.508;12.252;2023-11-19T13:07:47;101759.34;;;15.97;49.23
38786;BME280;24535;45.508;12.252;2023-11-19T13:10:12;101752.28;;;15.96;49.08